Time;durP1;ratioP1;P1;durP2;ratioP2;P2;SDS_P1;SDS_P2;PMS_P1;PMS_P2;Temp;Humidity;BMP_temperature;BMP_pressure;BME280_temperature;BME280_humidity;BME280_pressure;Samples;Min_cycle;Max_cycle;Signal;HPM_P1;HPM_P2
2023/05/26 00:00:58;;;;;;;6.82;5.43;;;13.00;99.90;;;;;;5076033;28;20027;-74
2023/05/26 00:03:27;;;;;;;11.30;7.45;;;13.10;99.90;;;;;;5057928;28;20036;-74
2023/05/26 00:05:54;;;;;;;12.63;9.27;;;13.00;99.90;;;;;;5057888;28;20025;-74
2023/05/26 00:08:19;;;;;;;10.15;7.80;;;13.00;99.90;;;;;;5075930;28;20473;-75
2023/05/26 00:10:45;;;;;;;8.15;6.85;;;13.00;99.90;;;;;;5075750;28;20039;-74
2023/05/26 00:13:11;;;;;;;9.98;7.63;;;13.00;99.90;;;;;;5075336;28;20082;-73
2023/05/26 00:15:36;;;;;;;9.85;7.07;;;12.90;99.90;;;;;;5075670;28;20473;-74
2023/05/26 00:18:02;;;;;;;9.70;7.95;;;12.80;99.90;;;;;;5075169;28;20102;-73
2023/05/26 00:20:29;;;;;;;11.73;8.18;;;12.80;99.90;;;;;;5075970;28;20031;-74
2023/05/26 00:22:55;;;;;;;8.60;6.60;;;12.80;99.90;;;;;;5057895;28;20033;-74
2023/05/26 00:25:22;;;;;;;8.40;6.25;;;12.80;99.90;;;;;;5075427;28;20159;-73
2023/05/26 00:27:48;;;;;;;9.48;6.10;;;12.80;99.90;;;;;;5075508;28;20392;-74
2023/05/26 00:30:14;;;;;;;7.60;5.80;;;12.70;99.90;;;;;;5076299;28;20044;-75
2023/05/26 00:32:39;;;;;;;6.38;5.30;;;12.70;99.90;;;;;;5075340;28;20097;-75
2023/05/26 00:35:06;;;;;;;7.15;5.47;;;12.60;99.90;;;;;;5075412;28;20497;-74
2023/05/26 00:37:32;;;;;;;11.50;6.45;;;12.60;99.90;;;;;;5075467;28;20028;-75
2023/05/26 00:39:58;;;;;;;7.82;5.88;;;12.60;99.90;;;;;;5075301;28;20021;-74
2023/05/26 00:42:24;;;;;;;7.10;5.70;;;12.50;99.90;;;;;;5075739;28;20036;-75
2023/05/26 00:44:51;;;;;;;8.55;5.88;;;12.40;99.90;;;;;;5075109;28;20056;-74
2023/05/26 00:47:17;;;;;;;7.20;6.03;;;12.40;99.90;;;;;;5075656;28;20376;-74
2023/05/26 00:49:43;;;;;;;9.45;6.28;;;12.40;99.90;;;;;;5075351;28;20032;-75
2023/05/26 00:52:10;;;;;;;9.65;6.05;;;12.40;99.90;;;;;;5075161;28;20086;-74
2023/05/26 00:54:37;;;;;;;8.27;5.72;;;12.40;99.90;;;;;;5074822;28;20033;-75
2023/05/26 00:57:03;;;;;;;9.35;6.00;;;12.40;99.90;;;;;;5074906;28;20126;-74
2023/05/26 00:59:30;;;;;;;6.82;5.47;;;12.40;99.90;;;;;;5075196;28;20036;-75
2023/05/26 01:01:55;;;;;;;8.77;6.15;;;12.40;99.90;;;;;;5074902;28;20035;-74
2023/05/26 01:04:21;;;;;;;8.15;6.15;;;12.40;99.90;;;;;;5056781;28;20477;-74
2023/05/26 01:06:49;;;;;;;9.77;6.25;;;12.40;99.90;;;;;;5074628;28;20035;-74
2023/05/26 01:09:15;;;;;;;10.27;5.88;;;12.40;99.90;;;;;;5074639;28;20039;-74
2023/05/26 01:11:49;;;;;;;7.65;5.82;;;12.30;99.90;;;;;;5074587;28;20104;-75
2023/05/26 01:14:28;;;;;;;8.35;6.00;;;12.30;99.90;;;;;;5074455;28;20020;-73
2023/05/26 01:17:02;;;;;;;7.30;5.80;;;12.30;99.90;;;;;;5074306;28;20012;-74
2023/05/26 01:19:36;;;;;;;9.38;5.57;;;12.30;99.90;;;;;;5074842;28;20016;-74
2023/05/26 01:22:29;;;;;;;8.52;5.90;;;12.30;99.90;;;;;;5074532;28;20039;-74
2023/05/26 01:25:27;;;;;;;8.90;5.80;;;12.20;99.90;;;;;;5074652;28;20021;-73
2023/05/26 01:28:15;;;;;;;8.55;5.63;;;12.20;99.90;;;;;;5036902;28;20431;-75
2023/05/26 01:30:43;;;;;;;8.27;5.68;;;12.20;99.90;;;;;;5074508;28;20107;-75
2023/05/26 01:33:08;;;;;;;8.45;5.43;;;12.20;99.90;;;;;;5074717;28;20107;-75
2023/05/26 01:35:34;;;;;;;9.57;5.55;;;12.20;99.90;;;;;;5056129;28;20112;-75
2023/05/26 01:38:00;;;;;;;6.35;5.28;;;12.20;99.90;;;;;;5056670;28;20376;-74
2023/05/26 01:40:27;;;;;;;9.05;5.78;;;12.10;99.90;;;;;;5074555;28;20429;-74
2023/05/26 01:43:09;;;;;;;8.18;6.20;;;12.10;99.90;;;;;;5074056;28;20377;-75
2023/05/26 01:45:48;;;;;;;9.10;6.38;;;12.00;99.90;;;;;;5074001;28;20078;-74
2023/05/26 01:48:16;;;;;;;7.75;5.97;;;11.90;99.90;;;;;;5074496;28;20028;-75
2023/05/26 01:50:56;;;;;;;10.10;6.93;;;11.90;99.90;;;;;;5074086;28;20107;-74
2023/05/26 01:53:26;;;;;;;6.70;5.80;;;11.90;99.90;;;;;;5073862;28;20052;-75
2023/05/26 01:55:56;;;;;;;7.13;5.57;;;11.90;99.90;;;;;;5074013;28;20079;-74
2023/05/26 01:58:23;;;;;;;8.60;5.97;;;11.90;99.90;;;;;;5056839;28;20476;-74
2023/05/26 02:00:49;;;;;;;7.70;5.93;;;11.80;99.90;;;;;;5073764;28;20028;-75
2023/05/26 02:03:15;;;;;;;7.20;5.80;;;11.80;99.90;;;;;;5073862;28;20541;-74
2023/05/26 02:05:41;;;;;;;7.93;5.32;;;11.80;99.90;;;;;;5055736;28;20033;-74
2023/05/26 02:08:10;;;;;;;8.38;6.88;;;11.70;99.90;;;;;;5055610;28;20029;-75
2023/05/26 02:10:35;;;;;;;13.85;9.55;;;11.70;99.90;;;;;;5055652;28;20028;-74
2023/05/26 02:13:01;;;;;;;15.82;11.23;;;11.70;99.90;;;;;;5055685;28;20028;-74
2023/05/26 02:15:27;;;;;;;14.15;11.48;;;11.60;99.90;;;;;;5055559;28;20032;-74
2023/05/26 02:17:57;;;;;;;12.85;10.05;;;11.50;99.90;;;;;;5073302;28;20078;-74
2023/05/26 02:20:23;;;;;;;13.07;8.77;;;11.40;99.90;;;;;;5073554;28;20046;-75
2023/05/26 02:22:49;;;;;;;10.75;7.72;;;11.40;99.90;;;;;;5073705;28;20039;-74
2023/05/26 02:25:16;;;;;;;9.50;6.72;;;11.40;99.90;;;;;;5073614;28;20024;-75
2023/05/26 02:27:41;;;;;;;9.07;6.57;;;11.40;99.90;;;;;;5038980;28;20527;-74
2023/05/26 02:30:07;;;;;;;7.45;6.25;;;11.40;99.90;;;;;;5073494;28;20033;-74
2023/05/26 02:32:34;;;;;;;9.13;6.38;;;11.40;99.90;;;;;;5055593;28;20479;-75
2023/05/26 02:35:00;;;;;;;8.82;5.82;;;11.40;99.90;;;;;;5073266;28;20021;-74
2023/05/26 02:37:26;;;;;;;9.23;6.05;;;11.40;99.90;;;;;;5073526;28;20033;-75
2023/05/26 02:39:53;;;;;;;8.15;6.28;;;11.40;99.90;;;;;;5073604;28;20098;-75
2023/05/26 02:42:18;;;;;;;8.35;6.05;;;11.40;99.90;;;;;;5055194;28;20039;-75
2023/05/26 02:44:44;;;;;;;9.38;6.47;;;11.40;99.90;;;;;;5073664;28;20391;-74
2023/05/26 02:47:10;;;;;;;8.57;6.75;;;11.40;99.90;;;;;;5073275;28;20035;-74
2023/05/26 02:49:36;;;;;;;10.32;7.72;;;11.40;99.90;;;;;;5073192;28;20086;-75
2023/05/26 02:52:02;;;;;;;10.52;8.00;;;11.40;99.90;;;;;;5073314;28;20063;-75
2023/05/26 02:54:28;;;;;;;9.88;7.03;;;11.40;99.90;;;;;;5073081;28;20036;-75
2023/05/26 02:56:53;;;;;;;9.35;7.03;;;11.40;99.90;;;;;;5073591;28;20025;-75
2023/05/26 02:59:19;;;;;;;10.07;7.32;;;11.40;99.90;;;;;;5055310;28;20021;-75
2023/05/26 03:01:45;;;;;;;9.85;7.40;;;11.50;99.90;;;;;;5073085;28;20052;-75
2023/05/26 03:04:11;;;;;;;8.77;6.68;;;11.40;99.90;;;;;;5073271;28;20033;-74
2023/05/26 03:06:36;;;;;;;11.15;7.47;;;11.30;99.90;;;;;;5073126;28;20032;-74
2023/05/26 03:09:02;;;;;;;8.68;6.30;;;11.30;99.90;;;;;;5072986;28;20060;-75
2023/05/26 03:11:28;;;;;;;9.98;6.93;;;11.40;99.90;;;;;;5072959;28;20059;-75
2023/05/26 03:13:53;;;;;;;12.52;7.43;;;11.40;99.90;;;;;;5072923;28;20358;-73
2023/05/26 03:16:20;;;;;;;10.35;7.57;;;11.30;99.90;;;;;;5073394;28;20405;-74
2023/05/26 03:18:46;;;;;;;9.57;6.90;;;11.30;99.90;;;;;;5072906;28;20056;-75
2023/05/26 03:21:11;;;;;;;10.13;7.00;;;11.40;99.90;;;;;;5054991;28;20055;-75
2023/05/26 03:23:37;;;;;;;9.73;7.40;;;11.30;99.90;;;;;;5072906;28;20037;-75
2023/05/26 03:26:02;;;;;;;8.20;6.07;;;11.30;99.90;;;;;;5072725;28;20481;-74
2023/05/26 03:28:28;;;;;;;9.43;6.55;;;11.30;99.90;;;;;;5072836;28;20507;-75
2023/05/26 03:30:54;;;;;;;7.13;5.70;;;11.30;99.90;;;;;;5073590;28;20103;-74
2023/05/26 03:33:19;;;;;;;7.80;5.88;;;11.20;99.90;;;;;;5072671;28;20064;-74
2023/05/26 03:35:45;;;;;;;9.15;5.82;;;11.20;99.90;;;;;;5073021;28;20180;-74
2023/05/26 03:38:11;;;;;;;12.93;7.78;;;11.20;99.90;;;;;;5073135;28;20480;-74
2023/05/26 03:40:36;;;;;;;13.35;7.18;;;11.20;99.90;;;;;;5076337;28;20016;-74
2023/05/26 03:43:02;;;;;;;12.77;8.40;;;11.20;99.90;;;;;;5076482;28;20028;-74
2023/05/26 03:45:28;;;;;;;14.02;9.05;;;11.20;99.90;;;;;;5076181;28;20086;-74
2023/05/26 03:47:54;;;;;;;14.10;7.88;;;11.20;99.90;;;;;;5076493;28;20071;-74
2023/05/26 03:50:19;;;;;;;12.32;8.43;;;11.20;99.90;;;;;;5076182;28;20485;-74
2023/05/26 03:52:45;;;;;;;13.45;8.07;;;11.20;99.90;;;;;;5058199;28;20496;-74
2023/05/26 03:55:11;;;;;;;12.32;7.97;;;11.20;99.90;;;;;;5057939;28;20040;-74
2023/05/26 03:57:38;;;;;;;10.05;7.95;;;11.20;99.90;;;;;;5058341;28;20485;-74
2023/05/26 04:00:06;;;;;;;11.77;7.97;;;11.20;99.90;;;;;;5041687;28;20021;-74
2023/05/26 04:02:31;;;;;;;11.30;7.63;;;11.20;99.90;;;;;;5077233;28;20429;-74
2023/05/26 04:04:57;;;;;;;13.52;7.78;;;11.10;99.90;;;;;;5075838;28;20057;-74
2023/05/26 04:07:23;;;;;;;10.30;7.95;;;11.00;99.90;;;;;;5076116;28;20073;-74
2023/05/26 04:09:48;;;;;;;12.27;7.53;;;11.00;99.90;;;;;;5076080;28;20085;-74
2023/05/26 04:12:14;;;;;;;9.80;7.28;;;11.00;99.90;;;;;;5075705;28;20028;-74
2023/05/26 04:14:40;;;;;;;9.77;6.97;;;11.10;99.90;;;;;;5075775;28;20484;-74
2023/05/26 04:17:06;;;;;;;10.32;7.78;;;11.10;99.90;;;;;;5075909;28;20032;-74
2023/05/26 04:19:31;;;;;;;10.98;6.82;;;11.10;99.90;;;;;;5058040;28;20028;-74
2023/05/26 04:21:57;;;;;;;11.55;8.27;;;11.20;99.90;;;;;;5057671;28;20078;-74
2023/05/26 04:24:23;;;;;;;11.75;8.20;;;11.30;99.90;;;;;;5075207;28;20082;-73
2023/05/26 04:26:52;;;;;;;9.20;7.25;;;11.30;99.90;;;;;;5075754;28;20032;-74
2023/05/26 04:29:20;;;;;;;12.00;8.10;;;11.30;99.90;;;;;;5056916;28;20044;-73
2023/05/26 04:31:46;;;;;;;11.32;7.28;;;11.30;99.90;;;;;;5075410;28;20411;-73
2023/05/26 04:34:12;;;;;;;8.93;6.97;;;11.30;99.90;;;;;;5075219;28;20044;-74
2023/05/26 04:36:39;;;;;;;10.52;8.15;;;11.30;99.90;;;;;;5072748;28;20017;-73
2023/05/26 04:39:06;;;;;;;14.55;9.98;;;11.40;99.90;;;;;;5075072;28;20565;-74
2023/05/26 04:41:34;;;;;;;13.60;9.55;;;11.40;99.90;;;;;;5075366;28;20094;-73
2023/05/26 04:44:00;;;;;;;12.38;8.45;;;11.50;99.90;;;;;;5057236;28;20024;-74
2023/05/26 04:46:28;;;;;;;12.02;9.07;;;11.50;99.90;;;;;;5048987;28;20029;-74
2023/05/26 04:48:57;;;;;;;12.50;8.38;;;11.50;99.90;;;;;;5066093;28;20021;-74
2023/05/26 04:51:23;;;;;;;11.00;8.02;;;11.50;99.90;;;;;;5052672;28;20392;-74
2023/05/26 04:53:50;;;;;;;13.68;9.07;;;11.60;99.90;;;;;;5068192;28;20029;-75
2023/05/26 04:56:16;;;;;;;14.55;8.57;;;11.60;99.90;;;;;;5070582;28;20036;-75
2023/05/26 04:58:41;;;;;;;13.60;10.30;;;11.70;99.90;;;;;;5073165;28;20024;-76
2023/05/26 05:01:07;;;;;;;13.05;8.75;;;11.80;99.90;;;;;;5040528;28;20098;-76
2023/05/26 05:03:34;;;;;;;11.90;8.60;;;11.90;99.90;;;;;;5056796;28;20500;-76
2023/05/26 05:06:00;;;;;;;15.75;9.93;;;11.90;99.90;;;;;;5074678;28;20029;-77
2023/05/26 05:08:26;;;;;;;16.27;11.55;;;12.00;99.90;;;;;;5057320;28;20028;-77
2023/05/26 05:10:51;;;;;;;16.20;11.48;;;12.00;99.90;;;;;;5074664;28;20020;-76
2023/05/26 05:13:18;;;;;;;20.08;13.43;;;12.10;99.90;;;;;;5073160;28;20120;-76
2023/05/26 05:15:44;;;;;;;25.73;15.73;;;12.10;99.90;;;;;;5072383;28;20104;-76
2023/05/26 05:18:10;;;;;;;25.80;16.85;;;12.10;99.90;;;;;;5072413;28;20698;-76
2023/05/26 05:20:36;;;;;;;21.63;15.00;;;12.10;99.90;;;;;;5072326;28;20215;-76
2023/05/26 05:23:02;;;;;;;24.45;16.70;;;12.10;99.90;;;;;;5054391;28;20435;-76
2023/05/26 05:25:27;;;;;;;24.98;15.98;;;12.20;99.90;;;;;;5072461;28;20540;-76
2023/05/26 05:27:53;;;;;;;22.58;14.43;;;12.20;99.90;;;;;;5055283;28;20040;-76
2023/05/26 05:30:19;;;;;;;23.58;15.30;;;12.30;99.90;;;;;;5074270;28;20090;-76
2023/05/26 05:32:45;;;;;;;19.13;12.95;;;12.30;99.90;;;;;;5074131;28;20473;-77
2023/05/26 05:35:11;;;;;;;17.20;12.77;;;12.30;99.90;;;;;;5074117;28;20028;-76
2023/05/26 05:37:37;;;;;;;19.45;13.85;;;12.30;99.90;;;;;;5074362;28;20077;-77
2023/05/26 05:40:03;;;;;;;20.00;12.23;;;12.30;99.90;;;;;;5056139;28;20567;-76
2023/05/26 05:42:29;;;;;;;16.60;12.20;;;12.30;99.90;;;;;;5074540;28;20033;-77
2023/05/26 05:44:55;;;;;;;18.05;11.93;;;12.30;99.90;;;;;;5074186;28;20384;-76
2023/05/26 05:47:21;;;;;;;19.52;12.93;;;12.30;99.90;;;;;;5074168;28;20035;-76
2023/05/26 05:49:46;;;;;;;19.73;13.25;;;12.40;99.90;;;;;;5074149;28;20092;-76
2023/05/26 05:52:14;;;;;;;19.92;13.43;;;12.40;99.90;;;;;;5056144;28;20031;-76
2023/05/26 05:54:40;;;;;;;18.75;12.38;;;12.50;99.90;;;;;;5073969;28;20435;-76
2023/05/26 05:57:05;;;;;;;18.23;12.60;;;12.50;99.90;;;;;;5074349;28;20112;-76
2023/05/26 05:59:31;;;;;;;16.77;11.27;;;12.60;99.90;;;;;;5073720;28;20106;-77
2023/05/26 06:01:57;;;;;;;17.05;12.05;;;12.70;99.90;;;;;;5073533;28;20035;-76
2023/05/26 06:04:23;;;;;;;15.85;12.25;;;12.70;99.90;;;;;;5073668;28;20025;-76
2023/05/26 06:06:50;;;;;;;17.40;11.45;;;12.90;99.90;;;;;;5073909;28;20059;-77
2023/05/26 06:09:16;;;;;;;19.85;13.30;;;13.00;99.90;;;;;;5073682;28;20055;-77
2023/05/26 06:11:43;;;;;;;17.13;11.68;;;13.10;99.90;;;;;;5055768;28;20060;-77
2023/05/26 06:14:09;;;;;;;17.02;11.77;;;13.20;99.90;;;;;;5073741;28;20072;-77
2023/05/26 06:16:35;;;;;;;18.17;12.30;;;13.30;99.90;;;;;;5055659;28;20384;-77
2023/05/26 06:19:00;;;;;;;16.92;11.50;;;13.50;99.90;;;;;;5073575;28;20027;-77
2023/05/26 06:21:26;;;;;;;16.75;10.88;;;13.50;99.90;;;;;;5055506;28;20373;-77
2023/05/26 06:23:52;;;;;;;16.17;11.43;;;13.50;99.90;;;;;;5073708;28;20035;-77
2023/05/26 06:26:18;;;;;;;13.82;10.32;;;13.60;99.90;;;;;;5073444;28;20078;-77
2023/05/26 06:28:44;;;;;;;13.63;10.75;;;13.70;99.90;;;;;;5073338;28;20037;-77
2023/05/26 06:31:10;;;;;;;18.35;11.77;;;13.80;99.90;;;;;;5073433;28;20056;-77
2023/05/26 06:33:36;;;;;;;17.73;11.65;;;13.80;99.90;;;;;;5071012;28;20442;-77
2023/05/26 06:36:02;;;;;;;16.83;11.48;;;13.90;99.90;;;;;;5055340;28;20029;-77
2023/05/26 06:38:27;;;;;;;16.17;10.95;;;13.90;99.90;;;;;;5073351;28;20024;-77
2023/05/26 06:40:53;;;;;;;15.10;11.35;;;14.00;99.90;;;;;;5073236;28;20021;-77
2023/05/26 06:43:20;;;;;;;15.63;11.43;;;14.10;99.90;;;;;;5073235;28;20064;-77
2023/05/26 06:45:46;;;;;;;15.57;11.32;;;14.20;99.90;;;;;;5055510;28;20028;-77
2023/05/26 06:48:11;;;;;;;15.98;11.10;;;14.30;99.90;;;;;;5073137;28;20029;-77
2023/05/26 06:50:37;;;;;;;13.70;10.30;;;14.40;99.90;;;;;;5073498;28;20036;-77
2023/05/26 06:53:03;;;;;;;15.00;11.73;;;14.40;99.90;;;;;;5073221;28;20046;-77
2023/05/26 06:55:29;;;;;;;17.38;12.27;;;14.50;99.90;;;;;;5072870;28;20043;-76
2023/05/26 06:57:54;;;;;;;18.02;12.73;;;14.50;99.90;;;;;;5072628;28;20049;-77
2023/05/26 07:00:21;;;;;;;16.17;12.13;;;14.60;99.90;;;;;;5073082;28;20469;-77
2023/05/26 07:02:47;;;;;;;18.92;12.93;;;14.70;99.90;;;;;;5073045;28;20052;-77
2023/05/26 07:05:13;;;;;;;19.08;13.68;;;14.80;99.90;;;;;;5055328;28;20448;-77
2023/05/26 07:07:38;;;;;;;16.10;12.07;;;14.90;99.90;;;;;;5073255;28;20028;-77
2023/05/26 07:10:05;;;;;;;18.70;12.10;;;15.00;99.90;;;;;;5073003;28;20036;-77
2023/05/26 07:12:30;;;;;;;17.17;12.55;;;15.20;99.90;;;;;;5073134;28;20052;-77
2023/05/26 07:14:56;;;;;;;17.15;11.00;;;15.30;99.90;;;;;;5076216;28;20162;-77
2023/05/26 07:17:22;;;;;;;13.73;10.95;;;15.40;99.90;;;;;;5042538;28;20029;-77
2023/05/26 07:19:47;;;;;;;13.82;10.27;;;15.50;99.90;;;;;;5059270;28;20512;-74
2023/05/26 07:22:13;;;;;;;15.23;9.98;;;15.60;99.90;;;;;;5058871;28;20047;-74
2023/05/26 07:24:39;;;;;;;15.48;9.95;;;15.80;99.90;;;;;;5076712;28;20041;-74
2023/05/26 07:27:06;;;;;;;12.23;8.35;;;15.90;99.90;;;;;;5076615;28;20024;-74
2023/05/26 07:29:32;;;;;;;11.80;8.68;;;15.90;99.90;;;;;;5077078;28;20036;-74
2023/05/26 07:31:58;;;;;;;13.48;8.63;;;16.10;99.90;;;;;;5076730;28;20039;-74
2023/05/26 07:34:24;;;;;;;13.40;9.40;;;16.20;99.90;;;;;;5076481;28;20020;-74
2023/05/26 07:36:50;;;;;;;13.13;8.10;;;16.40;99.90;;;;;;5076456;28;20099;-74
2023/05/26 07:39:15;;;;;;;12.40;8.88;;;16.50;99.90;;;;;;5058729;28;20128;-73
2023/05/26 07:41:41;;;;;;;12.90;8.25;;;16.70;99.90;;;;;;5076635;28;20043;-74
2023/05/26 07:44:07;;;;;;;11.00;9.07;;;16.80;99.90;;;;;;5076249;28;20028;-73
2023/05/26 07:46:33;;;;;;;13.55;9.52;;;16.90;99.90;;;;;;5076577;28;20024;-74
2023/05/26 07:48:58;;;;;;;11.63;8.35;;;17.00;99.90;;;;;;5059199;28;20384;-74
2023/05/26 07:51:24;;;;;;;13.65;9.25;;;17.10;99.90;;;;;;5076120;28;20048;-74
2023/05/26 07:53:50;;;;;;;13.05;9.00;;;17.20;99.90;;;;;;5076089;28;20020;-74
2023/05/26 07:56:16;;;;;;;13.05;8.77;;;17.40;99.90;;;;;;5076180;28;20081;-74
2023/05/26 07:58:41;;;;;;;10.15;6.90;;;17.60;99.90;;;;;;5076122;28;20028;-74
2023/05/26 08:01:08;;;;;;;9.48;7.05;;;17.70;99.90;;;;;;5076270;28;20040;-74
2023/05/26 08:03:34;;;;;;;11.82;8.82;;;17.90;99.90;;;;;;5058274;28;20032;-74
2023/05/26 08:06:00;;;;;;;12.90;8.38;;;18.10;99.90;;;;;;5075936;28;20044;-74
2023/05/26 08:08:26;;;;;;;11.85;7.85;;;18.20;99.90;;;;;;5057967;28;20357;-74
2023/05/26 08:10:52;;;;;;;11.27;7.63;;;18.40;99.90;;;;;;5075855;28;20028;-74
2023/05/26 08:13:18;;;;;;;9.85;7.38;;;18.60;99.90;;;;;;5076479;28;20060;-74
2023/05/26 08:15:43;;;;;;;8.05;6.57;;;18.80;99.90;;;;;;5075977;28;20103;-74
2023/05/26 08:18:10;;;;;;;7.63;6.38;;;18.90;99.90;;;;;;5057877;28;20024;-74
2023/05/26 08:20:36;;;;;;;9.43;7.15;;;19.10;99.90;;;;;;5075676;28;20021;-74
2023/05/26 08:23:02;;;;;;;7.95;6.53;;;19.30;99.90;;;;;;5075630;28;20039;-74
2023/05/26 08:25:27;;;;;;;6.93;5.68;;;19.40;99.90;;;;;;5057740;28;20491;-74
2023/05/26 08:27:53;;;;;;;7.60;5.57;;;19.50;99.90;;;;;;5075756;28;20032;-74
2023/05/26 08:30:19;;;;;;;5.45;4.50;;;19.70;99.90;;;;;;5057954;28;20028;-74
2023/05/26 08:32:45;;;;;;;7.25;4.60;;;19.80;99.90;;;;;;5075087;28;20384;-74
2023/05/26 08:35:10;;;;;;;6.53;4.75;;;20.00;99.90;;;;;;5075755;28;20012;-74
2023/05/26 08:37:36;;;;;;;8.18;4.72;;;20.10;99.90;;;;;;5075618;28;20029;-74
2023/05/26 08:40:04;;;;;;;6.90;5.30;;;20.20;99.90;;;;;;5057840;28;20031;-74
2023/05/26 08:42:34;;;;;;;6.85;4.80;;;20.30;99.90;;;;;;5075471;28;20024;-74
2023/05/26 08:45:00;;;;;;;11.43;4.77;;;20.30;99.90;;;;;;5075506;28;20523;-74
2023/05/26 08:47:27;;;;;;;7.30;3.90;;;20.40;99.90;;;;;;5075100;28;20446;-74
2023/05/26 08:49:56;;;;;;;6.00;3.90;;;20.50;99.90;;;;;;5057267;28;20020;-74
2023/05/26 08:52:23;;;;;;;4.00;3.33;;;20.60;99.90;;;;;;5075030;28;20029;-74
2023/05/26 08:54:49;;;;;;;5.70;3.33;;;20.80;97.80;;;;;;5074995;28;20055;-74
2023/05/26 08:57:17;;;;;;;4.70;3.60;;;20.90;97.90;;;;;;5074961;28;20491;-74
2023/05/26 08:59:45;;;;;;;6.20;4.53;;;21.00;96.40;;;;;;5075410;28;20406;-74
2023/05/26 09:02:12;;;;;;;5.82;4.10;;;21.20;98.20;;;;;;5074868;28;20038;-74
2023/05/26 09:04:38;;;;;;;4.97;3.78;;;21.40;97.70;;;;;;5056755;28;20052;-74
2023/05/26 09:07:08;;;;;;;5.18;3.75;;;21.50;97.10;;;;;;5056785;28;20113;-74
2023/05/26 09:09:34;;;;;;;9.18;4.75;;;21.60;96.10;;;;;;5075085;28;20181;-74
2023/05/26 09:12:00;;;;;;;8.65;4.35;;;21.70;97.30;;;;;;5074632;28;20028;-74
2023/05/26 09:14:26;;;;;;;6.50;4.32;;;21.80;97.40;;;;;;5074731;28;20496;-74
2023/05/26 09:16:54;;;;;;;6.22;4.07;;;21.90;94.20;;;;;;5074521;28;20032;-74
2023/05/26 09:19:20;;;;;;;8.30;3.90;;;22.00;94.90;;;;;;5074552;28;20102;-74
2023/05/26 09:21:48;;;;;;;8.43;4.00;;;22.10;94.70;;;;;;5074457;28;20058;-74
2023/05/26 09:24:18;;;;;;;4.72;3.55;;;22.30;93.80;;;;;;5074379;28;20381;-74
2023/05/26 09:26:47;;;;;;;8.43;4.03;;;22.40;93.90;;;;;;5074772;28;20106;-74
2023/05/26 09:29:13;;;;;;;6.30;4.10;;;22.50;93.70;;;;;;5074234;28;20029;-74
2023/05/26 09:31:43;;;;;;;6.50;4.00;;;22.50;92.50;;;;;;5074493;28;20052;-74
2023/05/26 09:34:10;;;;;;;8.15;4.43;;;22.40;92.60;;;;;;5074536;28;20025;-74
2023/05/26 09:36:38;;;;;;;6.88;4.28;;;22.30;92.60;;;;;;5073811;28;20516;-74
2023/05/26 09:39:05;;;;;;;4.90;3.67;;;22.30;92.50;;;;;;5074145;28;20024;-74
2023/05/26 09:41:38;;;;;;;6.50;3.90;;;22.40;92.50;;;;;;5074164;28;20025;-74
2023/05/26 09:44:22;;;;;;;6.15;4.00;;;22.50;92.80;;;;;;5073957;28;20033;-74
2023/05/26 09:46:53;;;;;;;7.38;3.92;;;22.70;92.00;;;;;;5056251;28;20090;-74
2023/05/26 09:49:19;;;;;;;5.30;3.80;;;22.80;93.30;;;;;;5074657;28;20039;-74
2023/05/26 09:51:48;;;;;;;7.35;3.97;;;23.00;91.60;;;;;;5074040;28;20032;-74
2023/05/26 09:54:13;;;;;;;10.38;3.55;;;23.20;91.40;;;;;;5073754;28;20451;-74
2023/05/26 09:57:01;;;;;;;7.57;3.90;;;23.30;89.10;;;;;;5074428;28;20086;-74
2023/05/26 09:59:38;;;;;;;7.13;3.40;;;23.30;91.00;;;;;;5073841;28;20036;-74
2023/05/26 10:02:20;;;;;;;5.28;3.70;;;23.30;89.40;;;;;;5074108;28;20032;-74
2023/05/26 10:04:47;;;;;;;5.72;3.40;;;23.30;84.00;;;;;;5073885;28;20384;-74
2023/05/26 10:07:15;;;;;;;4.47;3.20;;;23.20;84.60;;;;;;5074504;28;20039;-75
2023/05/26 10:09:42;;;;;;;4.95;3.38;;;23.10;82.10;;;;;;5075285;28;20479;-73
2023/05/26 10:12:10;;;;;;;4.32;3.38;;;23.00;83.90;;;;;;5074169;28;20077;-73
2023/05/26 10:14:36;;;;;;;7.50;3.83;;;23.00;86.60;;;;;;5073677;28;20035;-74
2023/05/26 10:17:05;;;;;;;5.30;3.95;;;22.90;88.20;;;;;;5073949;28;20396;-73
2023/05/26 10:19:31;;;;;;;8.10;3.75;;;23.00;86.20;;;;;;5073864;28;20031;-74
2023/05/26 10:22:04;;;;;;;7.20;3.63;;;23.00;87.10;;;;;;5055709;28;20113;-74
2023/05/26 10:24:35;;;;;;;5.88;4.05;;;23.10;88.90;;;;;;5073343;28;20048;-74
2023/05/26 10:27:25;;;;;;;6.82;3.10;;;23.40;86.80;;;;;;5074317;28;20020;-73
2023/05/26 10:30:11;;;;;;;5.15;3.40;;;23.50;85.90;;;;;;5073305;28;20032;-74
2023/05/26 10:32:47;;;;;;;4.43;3.17;;;23.70;85.10;;;;;;5073535;28;20025;-73
2023/05/26 10:35:23;;;;;;;4.85;3.10;;;23.90;80.80;;;;;;5055415;28;20055;-73
2023/05/26 10:38:01;;;;;;;3.88;2.92;;;24.00;79.40;;;;;;5073357;28;20542;-73
2023/05/26 10:40:40;;;;;;;4.75;3.00;;;24.00;80.70;;;;;;5072745;28;20029;-73
2023/05/26 10:43:11;;;;;;;;;;;24.10;80.10;;;;;;5072752;28;19916;-74
2023/05/26 10:45:42;;;;;;;;;;;24.10;78.70;;;;;;5056062;28;19908;-73
2023/05/26 10:48:10;;;;;;;;;;;24.30;79.60;;;;;;5074513;28;19909;-73
2023/05/26 10:50:55;;;;;;;;;;;24.30;79.30;;;;;;5077815;28;19987;-73
2023/05/26 10:53:22;;;;;;;;;;;24.30;77.80;;;;;;5056656;28;19994;-73
2023/05/26 10:55:55;;;;;;;;;;;24.30;79.40;;;;;;5077573;28;19954;-74
2023/05/26 10:58:26;;;;;;;;;;;24.30;79.80;;;;;;5077687;28;19905;-73
2023/05/26 11:00:57;;;;;;;;;;;24.40;76.70;;;;;;5077843;28;20421;-73
2023/05/26 11:03:52;;;;;;;;;;;24.50;78.20;;;;;;5078199;28;19954;-74
2023/05/26 11:06:31;;;;;;;;;;;24.50;76.20;;;;;;5068808;28;20049;-73
2023/05/26 11:09:00;;;;;;;;;;;24.60;78.50;;;;;;5077845;28;20364;-73
2023/05/26 11:11:27;;;;;;;;;;;24.60;75.70;;;;;;5059703;28;20038;-73
2023/05/26 11:13:58;;;;;;;;;;;24.60;78.20;;;;;;5077528;28;19919;-74
2023/05/26 11:16:25;;;;;;;;;;;24.90;79.20;;;;;;5077959;28;19900;-74
2023/05/26 11:18:54;;;;;;;;;;;24.80;78.90;;;;;;5077189;28;19905;-73
2023/05/26 11:21:27;;;;;;;;;;;24.80;78.20;;;;;;5077471;28;20012;-73
2023/05/26 11:23:57;;;;;;;;;;;24.90;78.80;;;;;;5077290;28;20050;-73
2023/05/26 11:26:23;;;;;;;;;;;25.10;76.20;;;;;;5075810;28;19944;-73
2023/05/26 11:28:49;;;;;;;;;;;25.20;77.20;;;;;;5076786;28;19912;-73
2023/05/26 11:31:16;;;;;;;;;;;25.20;75.60;;;;;;5077246;28;20003;-73
2023/05/26 11:33:42;;;;;;;;;;;25.20;74.60;;;;;;5077046;28;19908;-73
2023/05/26 11:36:12;;;;;;;;;;;25.10;76.60;;;;;;5058856;28;19909;-72
2023/05/26 11:38:38;;;;;;;;;;;25.10;72.80;;;;;;5068235;28;20384;-73
2023/05/26 11:41:04;;;;;;;;;;;25.10;76.10;;;;;;5059580;28;19919;-73
2023/05/26 11:43:30;;;;;;;;;;;25.10;72.70;;;;;;5056828;28;19905;-73
2023/05/26 11:46:00;;;;;;;;;;;25.20;78.20;;;;;;5039193;28;20399;-73
2023/05/26 11:48:30;;;;;;;;;;;25.20;75.40;;;;;;5059384;28;19915;-73
2023/05/26 11:50:55;;;;;;;;;;;25.20;75.40;;;;;;5076828;28;19905;-73
2023/05/26 11:53:21;;;;;;;;;;;25.10;75.20;;;;;;5076829;28;19924;-73
2023/05/26 11:55:46;;;;;;;;;;;24.90;73.50;;;;;;5076490;28;19928;-73
2023/05/26 11:58:13;;;;;;;;;;;24.40;74.90;;;;;;5076738;28;19999;-73
2023/05/26 12:00:38;;;;;;;;;;;24.20;77.40;;;;;;5075948;28;19943;-73
2023/05/26 12:03:04;;;;;;;;;;;23.90;76.80;;;;;;5076771;28;19912;-73
2023/05/26 12:05:30;;;;;;;;;;;23.50;77.60;;;;;;5075942;28;19904;-73
2023/05/26 12:08:02;;;;;;;;;;;23.40;78.70;;;;;;5065368;28;19919;-73
2023/05/26 12:10:28;;;;;;;;;;;23.30;79.60;;;;;;5064388;28;20383;-73
2023/05/26 12:12:53;;;;;;;;;;;23.20;80.80;;;;;;5056269;28;19913;-73
2023/05/26 12:15:20;;;;;;;;;;;23.10;78.10;;;;;;5056553;28;20019;-73
2023/05/26 12:17:46;;;;;;;;;;;23.00;79.30;;;;;;5056750;28;19905;-72
2023/05/26 12:20:15;;;;;;;;;;;22.80;81.50;;;;;;5056450;28;19963;-72
2023/05/26 12:22:41;;;;;;;;;;;23.00;82.80;;;;;;5056136;28;19940;-72
2023/05/26 12:25:07;;;;;;;;;;;23.30;83.70;;;;;;5049774;28;20332;-73
2023/05/26 12:27:39;;;;;;;;;;;23.50;80.60;;;;;;5075668;28;19917;-73
2023/05/26 12:30:18;;;;;;;;;;;23.70;80.70;;;;;;5075870;28;19949;-73
2023/05/26 12:32:43;;;;;;;;;;;23.80;80.60;;;;;;5075791;28;19908;-73
2023/05/26 12:35:09;;;;;;;;;;;23.90;81.00;;;;;;5075762;28;19950;-73
2023/05/26 12:37:34;;;;;;;;;;;24.00;79.10;;;;;;5076013;28;19915;-73
2023/05/26 12:40:01;;;;;;;;;;;24.00;80.00;;;;;;5075689;28;19947;-72
2023/05/26 12:42:26;;;;;;;;;;;23.80;79.10;;;;;;5075117;28;19970;-73
2023/05/26 12:44:52;;;;;;;;;;;23.40;79.40;;;;;;5059797;28;20330;-73
2023/05/26 12:47:17;;;;;;;;;;;22.90;80.90;;;;;;5075600;28;19908;-72
2023/05/26 12:49:43;;;;;;;;;;;22.50;83.10;;;;;;5070426;28;19912;-73
2023/05/26 12:52:08;;;;;;;;;;;22.30;83.10;;;;;;5060413;28;20349;-72
2023/05/26 12:54:34;;;;;;;;;;;22.10;84.60;;;;;;5065197;28;20040;-73
2023/05/26 12:57:04;;;;;;;;;;;21.80;87.70;;;;;;5072528;28;20425;-72